Time,TemperatureF,DewpointF,PressureIn,WindDirection,WindDirectionDegrees,WindSpeedMPH,WindSpeedGustMPH,Humidity,HourlyPrecipIn,Conditions,Clouds,dailyrainin,SoftwareType,DateUTC
2013-01-15 00:12:00,22.2,19.0,30.41,NNW,343,0.0,3.0,86,0.00,,,0.00,weatherlink.com 1.10,2013-01-15 05:12:00,
2013-01-15 00:27:00,22.2,19.0,30.42,SSW,198,0.0,2.0,86,0.00,,,0.00,weatherlink.com 1.10,2013-01-15 05:27:00,
2013-01-15 00:42:00,22.1,19.0,30.42,ESE,106,0.0,4.0,86,0.00,,,0.00,weatherlink.com 1.10,2013-01-15 05:42:00,
2013-01-15 00:57:00,22.2,19.0,30.42,NE,50,0.0,2.0,86,0.00,,,0.00,weatherlink.com 1.10,2013-01-15 05:57:00,
2013-01-15 01:12:00,22.3,19.0,30.42,WNW,301,0.0,3.0,86,0.00,,,0.00,weatherlink.com 1.10,2013-01-15 06:12:00,
2013-01-15 01:27:00,22.2,19.0,30.43,ESE,107,2.0,4.0,86,0.00,,,0.00,weatherlink.com 1.10,2013-01-15 06:27:00,
2013-01-15 01:42:00,22.3,19.0,30.43,NNW,327,0.0,4.0,86,0.00,,,0.00,weatherlink.com 1.10,2013-01-15 06:42:00,
2013-01-15 01:57:00,22.2,19.0,30.42,SSE,157,1.0,3.0,86,0.00,,,0.00,weatherlink.com 1.10,2013-01-15 06:57:00,
2013-01-15 02:12:00,22.2,19.0,30.42,NNW,344,0.0,2.0,86,0.00,,,0.00,weatherlink.com 1.10,2013-01-15 07:12:00,
2013-01-15 02:27:00,22.3,19.0,30.42,NE,39,1.0,5.0,86,0.00,,,0.00,weatherlink.com 1.10,2013-01-15 07:27:00,
2013-01-15 02:42:00,22.3,19.0,30.42,North,354,1.0,4.0,86,0.00,,,0.00,weatherlink.com 1.10,2013-01-15 07:42:00,
2013-01-15 02:57:00,22.4,19.0,30.42,WSW,250,0.0,3.0,86,0.00,,,0.00,weatherlink.com 1.10,2013-01-15 07:57:00,
2013-01-15 03:12:00,22.5,19.0,30.42,North,354,1.0,3.0,86,0.00,,,0.00,weatherlink.com 1.10,2013-01-15 08:12:00,
2013-01-15 03:27:00,22.3,19.0,30.42,North,352,2.0,5.0,85,0.00,,,0.00,weatherlink.com 1.10,2013-01-15 08:27:00,
2013-01-15 03:42:00,22.3,19.0,30.42,NNE,15,1.0,5.0,85,0.00,,,0.00,weatherlink.com 1.10,2013-01-15 08:42:00,
2013-01-15 03:57:00,22.1,18.0,30.42,ENE,70,1.0,5.0,85,0.00,,,0.00,weatherlink.com 1.10,2013-01-15 08:57:00,
2013-01-15 04:12:00,21.9,18.0,30.41,East,97,0.0,5.0,85,0.00,,,0.00,weatherlink.com 1.10,2013-01-15 09:12:00,
2013-01-15 04:27:00,21.8,18.0,30.41,NNE,25,2.0,5.0,85,0.00,,,0.00,weatherlink.com 1.10,2013-01-15 09:27:00,
2013-01-15 04:42:00,21.5,18.0,30.41,NE,49,0.0,5.0,85,0.00,,,0.00,weatherlink.com 1.10,2013-01-15 09:42:00,
2013-01-15 04:57:00,20.7,18.0,30.41,NE,35,2.0,4.0,88,0.00,,,0.00,weatherlink.com 1.10,2013-01-15 09:57:00,
2013-01-15 05:12:00,20.2,18.0,30.41,North,349,0.0,4.0,89,0.00,,,0.00,weatherlink.com 1.10,2013-01-15 10:12:00,
2013-01-15 05:27:00,19.7,17.0,30.42,ENE,61,1.0,3.0,90,0.00,,,0.00,weatherlink.com 1.10,2013-01-15 10:27:00,
2013-01-15 05:42:00,19.6,17.0,30.41,NNE,23,0.0,3.0,91,0.00,,,0.00,weatherlink.com 1.10,2013-01-15 10:42:00,
2013-01-15 05:57:00,19.3,17.0,30.42,NNW,333,1.0,2.0,91,0.00,,,0.00,weatherlink.com 1.10,2013-01-15 10:57:00,
2013-01-15 06:12:00,19.1,17.0,30.42,NE,53,1.0,2.0,91,0.00,,,0.00,weatherlink.com 1.10,2013-01-15 11:12:00,
2013-01-15 06:28:00,19.1,17.0,30.42,NNE,31,2.0,5.0,92,0.00,,,0.00,weatherlink.com 1.10,2013-01-15 11:28:00,
2013-01-15 06:43:00,19.0,17.0,30.41,North,355,1.0,3.0,92,0.00,,,0.00,weatherlink.com 1.10,2013-01-15 11:43:00,
2013-01-15 06:58:00,18.7,17.0,30.41,NNW,333,1.0,2.0,92,0.00,,,0.00,weatherlink.com 1.10,2013-01-15 11:58:00,
2013-01-15 07:13:00,18.7,17.0,30.40,ESE,110,1.0,3.0,92,0.00,,,0.00,weatherlink.com 1.10,2013-01-15 12:13:00,
2013-01-15 07:28:00,18.6,17.0,30.40,NE,38,1.0,2.0,92,0.00,,,0.00,weatherlink.com 1.10,2013-01-15 12:28:00,
2013-01-15 07:43:00,18.7,17.0,30.41,West,271,0.0,3.0,92,0.00,,,0.00,weatherlink.com 1.10,2013-01-15 12:43:00,
2013-01-15 07:58:00,19.0,17.0,30.42,North,352,0.0,5.0,91,0.00,,,0.00,weatherlink.com 1.10,2013-01-15 12:58:00,
2013-01-15 08:13:00,19.0,17.0,30.42,NNW,345,1.0,3.0,91,0.00,,,0.00,weatherlink.com 1.10,2013-01-15 13:13:00,
2013-01-15 08:28:00,19.3,17.0,30.42,WSW,239,1.0,3.0,91,0.00,,,0.00,weatherlink.com 1.10,2013-01-15 13:28:00,
2013-01-15 08:43:00,19.7,18.0,30.42,NNE,25,1.0,3.0,91,0.00,,,0.00,weatherlink.com 1.10,2013-01-15 13:43:00,
2013-01-15 08:58:00,20.2,18.0,30.41,ENE,75,3.0,4.0,90,0.00,,,0.00,weatherlink.com 1.10,2013-01-15 13:58:00,
2013-01-15 09:13:00,20.8,18.0,30.40,NE,43,2.0,5.0,89,0.00,,,0.00,weatherlink.com 1.10,2013-01-15 14:13:00,
2013-01-15 09:28:00,21.4,18.0,30.40,ESE,118,0.0,5.0,88,0.00,,,0.00,weatherlink.com 1.10,2013-01-15 14:28:00,
2013-01-15 09:43:00,22.7,19.0,30.41,NNE,26,0.0,7.0,86,0.00,,,0.00,weatherlink.com 1.10,2013-01-15 14:43:00,
2013-01-15 09:58:00,23.5,19.0,30.41,NW,315,1.0,7.0,84,0.00,,,0.00,weatherlink.com 1.10,2013-01-15 14:58:00,
2013-01-15 10:13:00,24.4,20.0,30.42,ENE,70,5.0,7.0,82,0.00,,,0.00,weatherlink.com 1.10,2013-01-15 15:13:00,
2013-01-15 10:28:00,25.3,20.0,30.43,ENE,64,2.0,7.0,80,0.00,,,0.00,weatherlink.com 1.10,2013-01-15 15:28:00,
2013-01-15 10:43:00,25.6,20.0,30.43,NW,311,4.0,8.0,80,0.00,,,0.00,weatherlink.com 1.10,2013-01-15 15:43:00,
2013-01-15 10:58:00,26.2,20.0,30.42,NW,308,1.0,6.0,78,0.00,,,0.00,weatherlink.com 1.10,2013-01-15 15:58:00,
2013-01-15 11:13:00,26.9,20.0,30.42,SSW,198,1.0,7.0,76,0.00,,,0.00,weatherlink.com 1.10,2013-01-15 16:13:00,
2013-01-15 11:28:00,26.9,20.0,30.41,SE,134,1.0,8.0,74,0.00,,,0.00,weatherlink.com 1.10,2013-01-15 16:28:00,
2013-01-15 11:43:00,28.0,20.0,30.39,WSW,250,2.0,8.0,73,0.00,,,0.00,weatherlink.com 1.10,2013-01-15 16:43:00,
2013-01-15 11:58:00,28.9,21.0,30.36,NNE,32,2.0,10.0,72,0.00,,,0.00,weatherlink.com 1.10,2013-01-15 16:58:00,
2013-01-15 12:13:00,29.1,21.0,30.36,NE,34,4.0,7.0,71,0.00,,,0.00,weatherlink.com 1.10,2013-01-15 17:13:00,
2013-01-15 12:28:00,29.6,21.0,30.36,NNW,339,4.0,6.0,71,0.00,,,0.00,weatherlink.com 1.10,2013-01-15 17:28:00,
2013-01-15 12:43:00,29.8,21.0,30.36,NNE,27,6.0,7.0,69,0.00,,,0.00,weatherlink.com 1.10,2013-01-15 17:43:00,
2013-01-15 12:58:00,29.9,21.0,30.34,NNE,33,8.0,8.0,70,0.00,,,0.00,weatherlink.com 1.10,2013-01-15 17:58:00,
2013-01-15 13:14:00,29.8,21.0,30.32,East,85,4.0,7.0,70,0.00,,,0.00,weatherlink.com 1.10,2013-01-15 18:14:00,
2013-01-15 13:29:00,30.0,22.0,30.31,ESE,118,3.0,6.0,71,0.00,,,0.00,weatherlink.com 1.10,2013-01-15 18:29:00,
2013-01-15 13:44:00,30.5,22.0,30.30,NW,322,3.0,8.0,70,0.00,,,0.00,weatherlink.com 1.10,2013-01-15 18:44:00,
2013-01-15 13:59:00,30.4,22.0,30.30,NNW,346,1.0,7.0,70,0.00,,,0.00,weatherlink.com 1.10,2013-01-15 18:59:00,
2013-01-15 14:14:00,31.1,22.0,30.29,East,87,1.0,9.0,69,0.00,,,0.00,weatherlink.com 1.10,2013-01-15 19:14:00,
2013-01-15 14:29:00,31.0,22.0,30.29,ENE,63,2.0,12.0,68,0.00,,,0.00,weatherlink.com 1.10,2013-01-15 19:29:00,
2013-01-15 14:44:00,31.0,22.0,30.30,ENE,60,5.0,8.0,70,0.00,,,0.00,weatherlink.com 1.10,2013-01-15 19:44:00,
2013-01-15 14:59:00,31.0,22.0,30.30,East,89,4.0,6.0,69,0.00,,,0.00,weatherlink.com 1.10,2013-01-15 19:59:00,
2013-01-15 15:14:00,30.7,22.0,30.30,WSW,248,2.0,5.0,70,0.00,,,0.00,weatherlink.com 1.10,2013-01-15 20:14:00,
2013-01-15 15:29:00,30.4,21.0,30.30,ENE,66,2.0,6.0,69,0.00,,,0.00,weatherlink.com 1.10,2013-01-15 20:29:00,
2013-01-15 15:44:00,29.8,22.0,30.29,WSW,243,2.0,6.0,72,0.00,,,0.00,weatherlink.com 1.10,2013-01-15 20:44:00,
2013-01-15 15:59:00,29.7,22.0,30.30,ESE,107,2.0,4.0,73,0.00,,,0.00,weatherlink.com 1.10,2013-01-15 20:59:00,
2013-01-15 16:14:00,29.7,22.0,30.30,North,349,4.0,4.0,73,0.00,,,0.00,weatherlink.com 1.10,2013-01-15 21:14:00,
2013-01-15 16:29:00,29.6,22.0,30.29,SE,125,2.0,6.0,73,0.00,,,0.00,weatherlink.com 1.10,2013-01-15 21:29:00,
2013-01-15 16:44:00,29.5,22.0,30.29,NE,56,2.0,5.0,73,0.00,,,0.00,weatherlink.com 1.10,2013-01-15 21:44:00,
2013-01-15 16:59:00,29.4,22.0,30.29,NW,322,1.0,4.0,74,0.00,,,0.00,weatherlink.com 1.10,2013-01-15 21:59:00,
2013-01-15 17:14:00,29.3,22.0,30.28,NNW,345,1.0,7.0,75,0.00,,,0.00,weatherlink.com 1.10,2013-01-15 22:14:00,
2013-01-15 17:29:00,29.2,22.0,30.27,East,84,3.0,5.0,75,0.00,,,0.00,weatherlink.com 1.10,2013-01-15 22:29:00,
2013-01-15 17:44:00,29.1,22.0,30.27,North,352,1.0,3.0,76,0.00,,,0.00,weatherlink.com 1.10,2013-01-15 22:44:00,
2013-01-15 17:59:00,29.1,22.0,30.26,ESE,115,1.0,5.0,76,0.00,,,0.00,weatherlink.com 1.10,2013-01-15 22:59:00,
2013-01-15 18:14:00,29.1,22.0,30.25,ENE,68,3.0,3.0,76,0.00,,,0.00,weatherlink.com 1.10,2013-01-15 23:14:00,
2013-01-15 18:29:00,29.1,23.0,30.25,NNW,338,0.0,3.0,77,0.00,,,0.00,weatherlink.com 1.10,2013-01-15 23:29:00,
2013-01-15 18:44:00,29.0,23.0,30.25,North,8,1.0,4.0,77,0.00,,,0.00,weatherlink.com 1.10,2013-01-15 23:44:00,
2013-01-15 18:59:00,29.1,23.0,30.25,ENE,60,4.0,5.0,78,0.00,,,0.00,weatherlink.com 1.10,2013-01-15 23:59:00,
2013-01-15 19:14:00,29.0,23.0,30.25,North,5,1.0,5.0,78,0.00,,,0.00,weatherlink.com 1.10,2013-01-16 00:14:00,
2013-01-15 19:29:00,28.8,23.0,30.23,NE,44,4.0,4.0,79,0.00,,,0.00,weatherlink.com 1.10,2013-01-16 00:29:00,
2013-01-15 19:44:00,28.7,23.0,30.23,NW,309,1.0,4.0,80,0.00,,,0.00,weatherlink.com 1.10,2013-01-16 00:44:00,
2013-01-15 19:59:00,28.6,23.0,30.22,ENE,77,2.0,5.0,80,0.00,,,0.00,weatherlink.com 1.10,2013-01-16 00:59:00,
2013-01-15 20:14:00,28.6,23.0,30.22,WSW,243,1.0,5.0,80,0.00,,,0.00,weatherlink.com 1.10,2013-01-16 01:14:00,
2013-01-15 20:29:00,28.5,23.0,30.21,NE,35,4.0,7.0,81,0.00,,,0.00,weatherlink.com 1.10,2013-01-16 01:29:00,
2013-01-15 20:44:00,28.5,23.0,30.20,East,91,0.0,7.0,81,0.00,,,0.00,weatherlink.com 1.10,2013-01-16 01:44:00,
2013-01-15 20:59:00,28.5,23.0,30.19,SW,221,1.0,5.0,81,0.00,,,0.00,weatherlink.com 1.10,2013-01-16 01:59:00,
2013-01-15 21:14:00,28.4,24.0,30.18,NNE,26,2.0,5.0,82,0.00,,,0.00,weatherlink.com 1.10,2013-01-16 02:14:00,
2013-01-15 21:29:00,28.3,24.0,30.18,NW,319,1.0,6.0,82,0.00,,,0.00,weatherlink.com 1.10,2013-01-16 02:29:00,
2013-01-15 21:44:00,28.3,24.0,30.18,West,276,1.0,6.0,82,0.00,,,0.00,weatherlink.com 1.10,2013-01-16 02:44:00,
2013-01-15 21:59:00,28.3,24.0,30.18,North,5,1.0,6.0,82,0.00,,,0.00,weatherlink.com 1.10,2013-01-16 02:59:00,
2013-01-15 22:14:00,28.3,24.0,30.17,North,10,0.0,6.0,82,0.00,,,0.00,weatherlink.com 1.10,2013-01-16 03:14:00,
2013-01-15 22:44:00,28.2,24.0,30.16,WNW,296,0.0,4.0,83,0.00,,,0.00,weatherlink.com 1.10,2013-01-16 03:44:00,
2013-01-15 22:59:00,28.1,24.0,30.15,SE,127,1.0,2.0,84,0.00,,,0.00,weatherlink.com 1.10,2013-01-16 03:59:00,
2013-01-15 23:14:00,28.1,24.0,30.14,NNE,31,0.0,4.0,84,0.00,,,0.00,weatherlink.com 1.10,2013-01-16 04:14:00,
2013-01-15 23:29:00,27.9,24.0,30.14,North,352,1.0,2.0,84,0.00,,,0.00,weatherlink.com 1.10,2013-01-16 04:29:00,
2013-01-15 23:44:00,27.5,24.0,30.13,North,350,0.0,2.0,85,0.00,,,0.00,weatherlink.com 1.10,2013-01-16 04:44:00,
2013-01-15 23:59:00,26.9,23.0,30.12,North,9,1.0,2.0,86,0.00,,,0.00,weatherlink.com 1.10,2013-01-16 04:59:00,